createdAt,value
2018-07-31T00:01:48.436Z,25.31
2018-07-31T00:04:52.020Z,25.19
2018-07-31T00:07:55.568Z,25.18
2018-07-31T00:10:59.279Z,25.16
2018-07-31T00:14:03.094Z,25.05
2018-07-31T00:17:06.709Z,24.95
2018-07-31T00:20:10.488Z,24.91
2018-07-31T00:23:14.257Z,24.78
2018-07-31T00:26:17.931Z,24.69
2018-07-31T00:29:21.591Z,24.64
2018-07-31T00:32:25.182Z,24.69
2018-07-31T00:35:28.715Z,24.73
2018-07-31T00:38:32.281Z,24.82
2018-07-31T00:41:36.048Z,24.93
2018-07-31T00:44:39.674Z,25.00
2018-07-31T00:47:43.385Z,25.01
2018-07-31T00:50:47.135Z,25.07
2018-07-31T00:53:50.845Z,25.12
2018-07-31T00:56:54.620Z,25.15
2018-07-31T00:59:58.347Z,25.14
2018-07-31T01:03:02.012Z,25.08
2018-07-31T01:06:05.652Z,25.05
2018-07-31T01:09:10.305Z,25.07
2018-07-31T01:12:14.056Z,25.02
2018-07-31T01:15:17.794Z,25.00
2018-07-31T01:18:21.475Z,24.97
2018-07-31T01:21:25.162Z,24.87
2018-07-31T01:24:28.842Z,24.85
2018-07-31T01:27:32.655Z,24.80
2018-07-31T01:30:36.419Z,24.79
2018-07-31T01:33:40.094Z,24.79
2018-07-31T01:36:43.737Z,24.77
2018-07-31T01:39:47.445Z,24.74
2018-07-31T01:42:51.016Z,24.69
2018-07-31T01:45:54.621Z,24.68
2018-07-31T01:48:58.421Z,24.69
2018-07-31T01:52:02.140Z,24.64
2018-07-31T01:55:05.797Z,24.63
2018-07-31T01:58:09.432Z,24.60
2018-07-31T02:01:13.066Z,24.54
2018-07-31T02:04:16.658Z,24.55
2018-07-31T02:07:20.310Z,24.48
2018-07-31T02:10:23.935Z,24.42
2018-07-31T02:13:27.522Z,24.43
2018-07-31T02:16:31.232Z,24.36
2018-07-31T02:19:34.892Z,24.38
2018-07-31T02:22:38.496Z,24.39
2018-07-31T02:25:42.423Z,24.29
2018-07-31T02:28:46.144Z,24.24
2018-07-31T02:31:49.747Z,24.14
2018-07-31T02:34:54.281Z,24.17
2018-07-31T02:37:57.922Z,24.15
2018-07-31T02:41:01.559Z,24.19
2018-07-31T02:44:05.397Z,24.16
2018-07-31T02:47:09.017Z,23.99
2018-07-31T02:50:12.848Z,23.94
2018-07-31T02:53:16.441Z,23.89
2018-07-31T02:56:20.089Z,23.83
2018-07-31T02:59:23.668Z,23.79
2018-07-31T03:02:27.267Z,23.81
2018-07-31T03:05:30.856Z,23.83
2018-07-31T03:08:34.462Z,23.66
2018-07-31T03:11:38.065Z,23.47
2018-07-31T03:14:41.728Z,23.43
2018-07-31T03:17:45.344Z,23.34
2018-07-31T03:20:49.023Z,23.26
2018-07-31T03:23:52.841Z,23.20
2018-07-31T03:26:56.543Z,23.16
2018-07-31T03:30:00.139Z,23.16
2018-07-31T03:33:03.828Z,23.12
2018-07-31T03:36:07.437Z,23.12
2018-07-31T03:39:11.318Z,23.11
2018-07-31T03:42:15.076Z,23.15
2018-07-31T03:45:18.663Z,23.21
2018-07-31T03:48:22.384Z,23.23
2018-07-31T03:51:25.903Z,23.16
2018-07-31T03:54:29.562Z,23.13
2018-07-31T03:57:33.201Z,23.18
2018-07-31T04:00:36.869Z,23.35
2018-07-31T04:03:40.466Z,23.58
2018-07-31T04:06:44.167Z,23.84
2018-07-31T04:09:47.812Z,24.08
2018-07-31T04:12:51.426Z,24.47
2018-07-31T04:15:55.017Z,25.00
2018-07-31T04:18:58.827Z,25.17
2018-07-31T04:22:02.509Z,25.73
2018-07-31T04:25:06.297Z,26.49
2018-07-31T04:28:09.971Z,27.23
2018-07-31T04:31:13.668Z,27.39
2018-07-31T04:34:17.228Z,27.64
2018-07-31T04:37:20.873Z,28.42
2018-07-31T04:40:24.457Z,28.98
2018-07-31T04:43:28.024Z,29.06
2018-07-31T04:46:31.748Z,29.16
2018-07-31T04:49:35.363Z,28.88
2018-07-31T04:52:39.375Z,29.05
2018-07-31T04:55:43.006Z,29.07
2018-07-31T04:58:46.644Z,29.19
2018-07-31T05:01:50.233Z,28.54
2018-07-31T05:04:53.907Z,27.46
2018-07-31T05:07:57.559Z,27.50
2018-07-31T05:11:01.247Z,28.33
2018-07-31T05:14:05.539Z,29.34
2018-07-31T05:17:10.214Z,27.83
2018-07-31T05:20:13.872Z,27.24
2018-07-31T05:23:17.716Z,27.23
2018-07-31T05:26:21.384Z,26.31
2018-07-31T05:29:25.015Z,26.42
2018-07-31T05:32:28.711Z,26.66
2018-07-31T05:35:32.398Z,27.70
2018-07-31T05:38:36.103Z,26.57
2018-07-31T05:41:39.679Z,25.12
2018-07-31T05:44:43.365Z,26.17
2018-07-31T05:47:47.020Z,26.06
2018-07-31T05:50:50.613Z,26.75
2018-07-31T05:53:54.286Z,26.84
2018-07-31T05:56:57.937Z,27.72
2018-07-31T06:00:01.688Z,29.07
2018-07-31T06:03:05.614Z,29.41
2018-07-31T06:06:09.455Z,27.86
2018-07-31T06:09:14.233Z,30.20
2018-07-31T06:12:17.904Z,29.48
2018-07-31T06:15:21.748Z,28.60
2018-07-31T06:18:25.596Z,27.36
2018-07-31T06:21:29.223Z,26.96
2018-07-31T06:24:33.220Z,26.71
2018-07-31T06:27:38.300Z,28.86
2018-07-31T06:30:42.315Z,28.13
2018-07-31T06:33:47.025Z,29.83
2018-07-31T06:36:50.629Z,30.04
2018-07-31T06:39:54.453Z,28.99
2018-07-31T06:42:58.234Z,29.02
2018-07-31T06:46:01.784Z,28.60
2018-07-31T06:49:05.470Z,28.55
2018-07-31T06:52:09.080Z,28.65
2018-07-31T06:55:12.718Z,28.74
2018-07-31T06:58:16.435Z,28.80
2018-07-31T07:01:19.949Z,28.47
2018-07-31T07:04:23.536Z,27.80
2018-07-31T07:07:27.080Z,27.50
2018-07-31T07:10:31.978Z,27.36
2018-07-31T07:13:35.610Z,27.69
2018-07-31T07:16:39.264Z,27.16
2018-07-31T07:19:42.955Z,26.94
2018-07-31T07:22:46.556Z,27.31
2018-07-31T07:25:50.331Z,27.60
2018-07-31T07:28:54.051Z,27.30
2018-07-31T07:31:57.760Z,27.31
2018-07-31T07:35:01.475Z,27.06
2018-07-31T07:38:05.089Z,27.47
2018-07-31T07:41:08.914Z,27.04
2018-07-31T07:44:12.576Z,27.14
2018-07-31T07:47:16.151Z,27.95
2018-07-31T07:50:19.895Z,27.68
2018-07-31T07:53:23.566Z,27.16
2018-07-31T07:56:27.480Z,27.24
2018-07-31T07:59:31.174Z,27.02
2018-07-31T08:02:35.133Z,27.12
2018-07-31T08:05:38.859Z,27.32
2018-07-31T08:08:42.444Z,27.54
2018-07-31T08:11:46.063Z,27.55
2018-07-31T08:14:49.731Z,26.82
2018-07-31T08:17:53.614Z,26.49
2018-07-31T08:20:57.185Z,26.85
2018-07-31T08:24:00.961Z,26.37
2018-07-31T08:27:04.630Z,26.26
2018-07-31T08:30:08.291Z,26.60
2018-07-31T08:33:12.069Z,26.65
2018-07-31T08:36:15.832Z,26.70
2018-07-31T08:39:19.536Z,27.35
2018-07-31T08:42:23.175Z,27.86
2018-07-31T08:45:26.722Z,28.08
2018-07-31T08:48:30.505Z,27.89
2018-07-31T08:51:34.166Z,28.03
2018-07-31T08:54:37.912Z,28.00
2018-07-31T08:57:41.592Z,27.87
2018-07-31T09:00:45.196Z,28.53
2018-07-31T09:03:48.860Z,28.50
2018-07-31T09:06:52.614Z,29.13
2018-07-31T09:09:56.306Z,28.58
2018-07-31T09:12:59.991Z,28.97
2018-07-31T09:16:03.839Z,28.69
2018-07-31T09:19:07.734Z,29.37
2018-07-31T09:22:11.714Z,29.73
2018-07-31T09:25:15.544Z,30.16
2018-07-31T09:28:19.535Z,29.97
2018-07-31T09:31:24.057Z,29.95
2018-07-31T09:34:27.851Z,29.70
2018-07-31T09:37:31.632Z,29.81
2018-07-31T09:40:35.239Z,29.68
2018-07-31T09:43:38.817Z,30.33
2018-07-31T09:46:42.476Z,30.44
2018-07-31T09:49:46.099Z,30.35
2018-07-31T09:52:49.756Z,30.40
2018-07-31T09:55:53.421Z,30.47
2018-07-31T09:58:57.628Z,30.64
2018-07-31T10:02:01.868Z,30.75
2018-07-31T10:05:05.955Z,30.79
2018-07-31T10:08:09.573Z,30.62
2018-07-31T10:11:13.259Z,31.04
2018-07-31T10:14:17.476Z,31.61
2018-07-31T10:17:21.962Z,31.53
2018-07-31T10:20:26.208Z,31.31
2018-07-31T10:23:29.987Z,31.60
2018-07-31T10:26:33.677Z,32.11
2018-07-31T10:29:37.596Z,32.43
2018-07-31T10:32:41.333Z,31.87
2018-07-31T10:35:45.076Z,31.67
2018-07-31T10:38:48.715Z,32.05
2018-07-31T10:41:52.450Z,31.57
2018-07-31T10:44:56.225Z,31.80
2018-07-31T10:47:59.877Z,32.25
2018-07-31T10:51:03.912Z,32.49
2018-07-31T10:54:07.553Z,32.50
2018-07-31T10:57:11.665Z,32.41
2018-07-31T11:00:15.545Z,32.52
2018-07-31T11:03:19.262Z,32.66
2018-07-31T11:06:23.891Z,32.90
2018-07-31T11:09:27.461Z,32.77
2018-07-31T11:12:31.292Z,33.04
2018-07-31T11:15:34.903Z,33.75
2018-07-31T11:18:38.728Z,33.81
2018-07-31T11:21:42.498Z,33.00
2018-07-31T11:24:46.466Z,32.94
2018-07-31T11:27:50.174Z,33.05
2018-07-31T11:30:53.784Z,33.07
2018-07-31T11:33:57.469Z,33.19
2018-07-31T11:37:01.181Z,33.16
2018-07-31T11:40:05.676Z,33.06
2018-07-31T11:43:09.406Z,33.13
2018-07-31T11:46:13.177Z,32.94
2018-07-31T11:49:16.972Z,32.78
2018-07-31T11:52:21.227Z,33.00
2018-07-31T11:55:24.876Z,33.47
2018-07-31T11:58:28.538Z,33.48
2018-07-31T12:01:32.326Z,34.01
2018-07-31T12:04:35.998Z,32.81
2018-07-31T12:07:39.705Z,33.43
2018-07-31T12:10:43.273Z,32.82
2018-07-31T12:13:46.949Z,32.99
2018-07-31T12:16:50.669Z,32.83
2018-07-31T12:19:54.247Z,33.12
2018-07-31T12:22:57.912Z,33.29
2018-07-31T12:26:01.628Z,33.49
2018-07-31T12:29:05.413Z,33.73
2018-07-31T12:32:09.338Z,33.57
2018-07-31T12:35:13.016Z,33.07
2018-07-31T12:38:16.746Z,33.38
2018-07-31T12:41:20.508Z,33.03
2018-07-31T12:44:24.067Z,32.76
2018-07-31T12:47:27.724Z,32.62
2018-07-31T12:50:31.391Z,33.26
2018-07-31T12:53:35.078Z,33.35
2018-07-31T12:56:39.102Z,33.28
2018-07-31T12:59:42.775Z,33.00
2018-07-31T13:02:47.672Z,33.14
2018-07-31T13:05:51.458Z,33.50
2018-07-31T13:08:55.287Z,33.81
2018-07-31T13:11:59.132Z,33.95
2018-07-31T13:15:02.981Z,33.02
2018-07-31T13:18:06.623Z,33.27
2018-07-31T13:21:11.247Z,33.64
2018-07-31T13:24:15.235Z,33.48
2018-07-31T13:27:18.768Z,33.28
2018-07-31T13:30:22.439Z,33.42
2018-07-31T13:33:26.244Z,32.90
2018-07-31T13:36:29.853Z,32.55
2018-07-31T13:39:33.420Z,32.87
2018-07-31T13:42:37.103Z,33.89
2018-07-31T13:45:40.822Z,33.57
2018-07-31T13:48:44.522Z,32.94
2018-07-31T13:51:48.178Z,32.86
2018-07-31T13:54:51.852Z,33.06
2018-07-31T13:57:55.509Z,33.26
2018-07-31T14:00:59.186Z,32.98
2018-07-31T14:04:02.847Z,32.94
2018-07-31T14:07:06.584Z,32.86
2018-07-31T14:10:10.390Z,32.99
2018-07-31T14:13:14.053Z,33.35
2018-07-31T14:16:17.674Z,33.28
2018-07-31T14:19:21.434Z,33.06
2018-07-31T14:22:25.179Z,33.28
2018-07-31T14:25:28.901Z,33.50
2018-07-31T14:28:32.561Z,33.44
2018-07-31T14:31:36.251Z,33.85
2018-07-31T14:34:39.920Z,33.32
2018-07-31T14:37:43.496Z,33.45
2018-07-31T14:40:47.168Z,33.61
2018-07-31T14:43:50.755Z,33.71
2018-07-31T14:46:54.782Z,33.57
2018-07-31T14:49:58.529Z,33.76
2018-07-31T14:53:02.393Z,33.16
2018-07-31T14:56:06.193Z,33.15
2018-07-31T14:59:09.836Z,32.99
2018-07-31T15:02:13.850Z,33.08
2018-07-31T15:05:17.438Z,33.06
2018-07-31T15:08:21.150Z,32.68
2018-07-31T15:11:24.895Z,32.99
2018-07-31T15:14:28.543Z,32.91
2018-07-31T15:17:32.315Z,33.04
2018-07-31T15:20:35.928Z,32.98
2018-07-31T15:23:39.795Z,33.15
2018-07-31T15:26:43.470Z,33.03
2018-07-31T15:29:47.220Z,33.18
2018-07-31T15:32:50.869Z,33.34
2018-07-31T15:35:54.981Z,33.42
2018-07-31T15:38:58.616Z,33.23
2018-07-31T15:42:02.395Z,33.21
2018-07-31T15:45:06.299Z,33.43
2018-07-31T15:48:10.226Z,33.16
2018-07-31T15:51:14.019Z,33.12
2018-07-31T15:54:17.811Z,33.30
2018-07-31T15:57:21.595Z,33.15
2018-07-31T16:00:25.334Z,33.23
2018-07-31T16:03:28.995Z,33.04
2018-07-31T16:06:32.704Z,32.88
2018-07-31T16:09:36.329Z,32.73
2018-07-31T16:12:40.118Z,32.96
2018-07-31T16:15:43.800Z,32.79
2018-07-31T16:18:47.516Z,32.38
2018-07-31T16:21:57.679Z,32.46
2018-07-31T16:25:01.446Z,32.03
2018-07-31T16:28:05.109Z,32.11
2018-07-31T16:31:08.388Z,32.01
2018-07-31T16:34:12.060Z,31.67
2018-07-31T16:37:15.852Z,31.85
2018-07-31T16:40:19.458Z,31.78
2018-07-31T16:43:23.903Z,31.68
2018-07-31T16:46:28.012Z,31.50
2018-07-31T16:49:32.081Z,31.74
2018-07-31T16:52:35.770Z,31.25
2018-07-31T16:55:39.401Z,30.91
2018-07-31T16:58:43.432Z,30.89
2018-07-31T17:01:47.180Z,30.86
2018-07-31T17:04:50.856Z,30.68
2018-07-31T17:07:54.590Z,30.94
2018-07-31T17:10:58.467Z,30.68
2018-07-31T17:14:02.193Z,30.67
2018-07-31T17:17:05.840Z,30.95
2018-07-31T17:20:09.528Z,30.95
2018-07-31T17:23:13.535Z,31.48
2018-07-31T17:26:17.163Z,31.24
2018-07-31T17:29:20.891Z,30.87
2018-07-31T17:32:24.532Z,31.21
2018-07-31T17:35:28.383Z,31.11
2018-07-31T17:38:32.096Z,31.30
2018-07-31T17:41:35.912Z,30.83
2018-07-31T17:44:39.724Z,30.98
2018-07-31T17:47:43.362Z,30.31
2018-07-31T17:50:47.047Z,30.16
2018-07-31T17:53:50.756Z,30.00
2018-07-31T17:56:54.487Z,29.67
2018-07-31T17:59:58.402Z,29.48
2018-07-31T18:03:02.092Z,29.97
2018-07-31T18:06:06.015Z,29.30
2018-07-31T18:09:10.475Z,29.19
2018-07-31T18:12:14.227Z,29.04
2018-07-31T18:15:17.899Z,29.03
2018-07-31T18:18:21.675Z,28.59
2018-07-31T18:21:25.348Z,28.29
2018-07-31T18:24:29.145Z,28.39
2018-07-31T18:27:32.861Z,28.04
2018-07-31T18:30:36.867Z,27.80
2018-07-31T18:33:40.554Z,27.71
2018-07-31T18:36:44.283Z,27.51
2018-07-31T18:39:47.979Z,27.49
2018-07-31T18:42:51.796Z,27.11
2018-07-31T18:45:55.392Z,26.96
2018-07-31T18:48:59.158Z,26.76
2018-07-31T18:52:02.988Z,26.77
2018-07-31T18:55:06.707Z,26.66
2018-07-31T18:58:10.437Z,26.67
2018-07-31T19:01:14.388Z,26.55
2018-07-31T19:04:18.286Z,26.27
2018-07-31T19:07:22.033Z,26.10
2018-07-31T19:10:25.698Z,26.13
2018-07-31T19:13:29.418Z,25.96
2018-07-31T19:16:33.201Z,25.89
2018-07-31T19:19:36.806Z,25.82
2018-07-31T19:22:40.486Z,25.69
2018-07-31T19:25:44.236Z,25.65
2018-07-31T19:28:48.024Z,25.62
2018-07-31T19:31:51.779Z,25.49
2018-07-31T19:34:55.568Z,25.23
2018-07-31T19:37:59.321Z,25.17
2018-07-31T19:41:03.018Z,25.17
2018-07-31T19:44:06.784Z,25.03
2018-07-31T19:47:10.604Z,24.93
2018-07-31T19:50:14.428Z,24.85
2018-07-31T19:53:18.166Z,24.72
2018-07-31T19:56:21.871Z,24.60
2018-07-31T19:59:25.556Z,24.55
2018-07-31T20:02:29.343Z,24.44
2018-07-31T20:05:33.188Z,24.35
2018-07-31T20:08:37.008Z,24.30
2018-07-31T20:11:40.676Z,24.25
2018-07-31T20:14:44.463Z,24.21
2018-07-31T20:17:48.085Z,24.13
2018-07-31T20:20:52.057Z,24.09
2018-07-31T20:23:55.733Z,24.02
2018-07-31T20:26:59.614Z,24.06
2018-07-31T20:30:03.429Z,23.95
2018-07-31T20:33:07.127Z,23.88
2018-07-31T20:36:10.804Z,23.90
2018-07-31T20:39:14.528Z,23.82
2018-07-31T20:42:18.211Z,23.81
2018-07-31T20:45:22.847Z,23.72
2018-07-31T20:48:26.582Z,23.65
2018-07-31T20:51:31.109Z,23.70
2018-07-31T20:54:34.900Z,23.69
2018-07-31T20:57:39.372Z,23.65
2018-07-31T21:00:43.154Z,23.50
2018-07-31T21:03:46.905Z,23.41
2018-07-31T21:06:50.576Z,23.47
2018-07-31T21:09:54.612Z,23.41
2018-07-31T21:12:59.012Z,23.29
2018-07-31T21:16:02.820Z,23.20
2018-07-31T21:19:06.602Z,23.16
2018-07-31T21:22:10.287Z,23.17
2018-07-31T21:25:13.942Z,23.16
2018-07-31T21:28:17.622Z,23.13
2018-07-31T21:31:21.519Z,23.05
2018-07-31T21:34:25.176Z,22.98
2018-07-31T21:37:28.885Z,22.97
2018-07-31T21:40:32.512Z,22.93
2018-07-31T21:43:36.327Z,22.88
2018-07-31T21:46:40.143Z,22.91
2018-07-31T21:49:43.933Z,22.94
2018-07-31T21:52:47.803Z,22.94
2018-07-31T21:55:51.398Z,22.91
2018-07-31T21:58:55.077Z,22.88
2018-07-31T22:01:58.776Z,22.96
2018-07-31T22:05:02.427Z,23.01
2018-07-31T22:08:06.018Z,22.91
2018-07-31T22:11:09.802Z,22.96
2018-07-31T22:14:13.389Z,22.88
2018-07-31T22:17:17.048Z,22.93
2018-07-31T22:20:22.072Z,22.78
2018-07-31T22:23:25.638Z,22.76
2018-07-31T22:26:29.286Z,22.77
2018-07-31T22:29:33.029Z,22.70
2018-07-31T22:32:36.769Z,22.84
2018-07-31T22:35:40.442Z,22.65
2018-07-31T22:38:44.162Z,22.63
2018-07-31T22:41:47.838Z,22.63
2018-07-31T22:44:51.439Z,22.53
2018-07-31T22:47:55.155Z,22.42
2018-07-31T22:50:58.776Z,22.16
2018-07-31T22:54:02.354Z,22.09
2018-07-31T22:57:06.240Z,21.97
2018-07-31T23:00:09.978Z,21.99
2018-07-31T23:03:13.666Z,21.94
2018-07-31T23:06:17.368Z,21.76
2018-07-31T23:09:20.958Z,21.70
2018-07-31T23:12:25.029Z,21.67
2018-07-31T23:15:28.784Z,21.68
2018-07-31T23:18:33.144Z,21.66
2018-07-31T23:21:37.005Z,21.73
2018-07-31T23:24:40.760Z,21.53
2018-07-31T23:27:44.469Z,21.47
2018-07-31T23:30:48.080Z,21.47
2018-07-31T23:33:51.632Z,21.47
2018-07-31T23:36:55.220Z,21.33
2018-07-31T23:39:59.733Z,21.30
2018-07-31T23:43:03.354Z,21.29
2018-07-31T23:46:06.998Z,21.29
2018-07-31T23:49:10.793Z,21.25
2018-07-31T23:52:14.591Z,21.29
2018-07-31T23:55:19.412Z,21.38
2018-07-31T23:58:22.981Z,21.30
